createdAt,value
2022-10-02T00:02:04.118Z,99.90
2022-10-02T00:05:13.638Z,99.90
2022-10-02T00:07:52.515Z,99.90
2022-10-02T00:10:28.935Z,99.90
2022-10-02T00:13:00.740Z,99.90
2022-10-02T00:15:31.213Z,99.90
2022-10-02T00:18:07.598Z,99.90
2022-10-02T00:20:59.145Z,99.90
2022-10-02T00:23:43.174Z,99.90
2022-10-02T00:26:34.630Z,99.90
2022-10-02T00:29:27.908Z,99.90
2022-10-02T00:32:03.433Z,99.90
2022-10-02T00:34:31.043Z,99.90
2022-10-02T00:37:08.335Z,99.90
2022-10-02T00:39:53.398Z,99.90
2022-10-02T00:42:42.604Z,99.90
2022-10-02T00:45:32.546Z,99.90
2022-10-02T00:48:20.393Z,99.90
2022-10-02T00:51:06.215Z,99.90
2022-10-02T00:54:01.256Z,99.90
2022-10-02T00:56:53.290Z,99.90
2022-10-02T00:59:51.493Z,99.90
2022-10-02T01:02:24.226Z,99.90
2022-10-02T01:04:51.045Z,99.90
2022-10-02T01:07:17.833Z,99.90
2022-10-02T01:09:45.824Z,99.90
2022-10-02T01:12:14.896Z,99.90
2022-10-02T01:14:42.004Z,99.90
2022-10-02T01:17:27.058Z,99.90
2022-10-02T01:19:55.152Z,99.90
2022-10-02T01:22:31.027Z,99.90
2022-10-02T01:24:59.645Z,99.90
2022-10-02T01:27:27.041Z,99.90
2022-10-02T01:30:09.148Z,99.90
2022-10-02T01:32:40.947Z,99.90
2022-10-02T01:35:08.470Z,99.90
2022-10-02T01:37:39.686Z,99.90
2022-10-02T01:40:10.160Z,99.90
2022-10-02T01:42:38.931Z,99.90
2022-10-02T01:45:08.097Z,99.90
2022-10-02T01:47:47.032Z,99.90
2022-10-02T01:50:38.706Z,99.90
2022-10-02T01:53:20.051Z,99.90
2022-10-02T01:56:07.345Z,99.90
2022-10-02T01:58:52.578Z,99.90
2022-10-02T02:01:25.436Z,99.90
2022-10-02T02:03:57.988Z,99.90
2022-10-02T02:06:27.783Z,99.90
2022-10-02T02:09:02.163Z,99.90
2022-10-02T02:11:29.857Z,99.90
2022-10-02T02:14:11.007Z,99.90
2022-10-02T02:16:48.400Z,99.90
2022-10-02T02:19:15.093Z,99.90
2022-10-02T02:22:16.974Z,99.90
2022-10-02T02:25:06.184Z,99.90
2022-10-02T02:27:45.245Z,99.90
2022-10-02T02:30:14.108Z,99.90
2022-10-02T02:32:50.646Z,99.90
2022-10-02T02:35:33.692Z,99.90
2022-10-02T02:38:05.631Z,99.90
2022-10-02T02:40:35.045Z,99.90
2022-10-02T02:43:10.020Z,99.90
2022-10-02T02:45:43.621Z,99.90
2022-10-02T02:48:27.965Z,99.90
2022-10-02T02:51:21.041Z,99.90
2022-10-02T02:53:59.727Z,99.90
2022-10-02T02:56:29.681Z,99.90
2022-10-02T02:59:10.972Z,99.90
2022-10-02T03:01:37.842Z,99.90
2022-10-02T03:04:04.707Z,99.90
2022-10-02T03:06:38.461Z,99.90
2022-10-02T03:09:11.211Z,99.90
2022-10-02T03:11:58.870Z,99.90
2022-10-02T03:14:47.011Z,99.90
2022-10-02T03:17:55.733Z,99.90
2022-10-02T03:20:45.238Z,99.90
2022-10-02T03:23:30.507Z,99.90
2022-10-02T03:26:17.076Z,99.90
2022-10-02T03:28:56.733Z,99.90
2022-10-02T03:31:26.936Z,99.90
2022-10-02T03:33:54.770Z,99.90
2022-10-02T03:36:24.410Z,99.90
2022-10-02T03:39:19.869Z,99.90
2022-10-02T03:41:41.389Z,99.90
2022-10-02T03:44:08.126Z,99.90
2022-10-02T03:46:35.239Z,99.90
2022-10-02T03:49:02.283Z,99.90
2022-10-02T03:51:28.908Z,99.90
2022-10-02T03:53:55.580Z,99.90
2022-10-02T03:57:01.697Z,99.90
2022-10-02T03:59:48.167Z,99.90
2022-10-02T04:02:49.591Z,99.90
2022-10-02T04:05:41.022Z,99.90
2022-10-02T04:08:42.232Z,99.90
2022-10-02T04:11:19.948Z,99.90
2022-10-02T04:14:03.809Z,99.90
2022-10-02T04:16:38.043Z,99.90
2022-10-02T04:19:11.073Z,99.90
2022-10-02T04:21:49.043Z,99.90
2022-10-02T04:24:28.314Z,99.90
2022-10-02T04:27:04.531Z,99.90
2022-10-02T04:29:40.100Z,99.90
2022-10-02T04:32:16.560Z,99.90
2022-10-02T04:34:44.024Z,99.90
2022-10-02T04:37:10.679Z,99.90
2022-10-02T04:39:54.396Z,99.90
2022-10-02T04:43:03.002Z,99.90
2022-10-02T04:45:52.349Z,99.90
2022-10-02T04:48:34.382Z,99.90
2022-10-02T04:51:24.102Z,99.90
2022-10-02T04:54:15.039Z,99.90
2022-10-02T04:57:23.672Z,99.90
2022-10-02T05:00:10.649Z,99.90
2022-10-02T05:03:15.686Z,99.90
2022-10-02T05:06:00.965Z,99.90
2022-10-02T05:08:44.685Z,99.90
2022-10-02T05:11:20.622Z,99.90
2022-10-02T05:14:10.173Z,99.90
2022-10-02T05:17:11.952Z,99.90
2022-10-02T05:20:03.048Z,99.90
2022-10-02T05:22:56.553Z,99.90
2022-10-02T05:26:14.481Z,99.90
2022-10-02T05:29:03.074Z,99.90
2022-10-02T05:31:33.369Z,99.90
2022-10-02T05:34:31.155Z,99.90
2022-10-02T05:37:27.857Z,99.90
2022-10-02T05:40:25.201Z,99.90
2022-10-02T05:43:06.404Z,99.90
2022-10-02T05:45:39.846Z,99.90
2022-10-02T05:48:15.859Z,99.90
2022-10-02T05:50:46.245Z,99.90
2022-10-02T05:53:35.056Z,99.90
2022-10-02T05:56:23.939Z,99.90
2022-10-02T05:58:56.695Z,99.90
2022-10-02T06:01:47.047Z,99.90
2022-10-02T06:04:33.893Z,99.90
2022-10-02T06:07:09.543Z,99.90
2022-10-02T06:09:42.165Z,99.90
2022-10-02T06:12:26.420Z,99.90
2022-10-02T06:15:19.659Z,99.90
2022-10-02T06:18:05.955Z,99.90
2022-10-02T06:20:35.330Z,99.90
2022-10-02T06:23:07.909Z,99.90
2022-10-02T06:25:49.890Z,99.90
2022-10-02T06:28:25.917Z,99.90
2022-10-02T06:31:13.451Z,99.90
2022-10-02T06:33:40.236Z,99.90
2022-10-02T06:36:51.368Z,99.90
2022-10-02T06:39:48.482Z,99.90
2022-10-02T06:42:32.500Z,99.90
2022-10-02T06:45:08.150Z,99.90
2022-10-02T06:47:54.178Z,99.90
2022-10-02T06:50:30.386Z,99.90
2022-10-02T06:53:37.979Z,99.90
2022-10-02T06:56:49.107Z,99.90
2022-10-02T06:59:55.054Z,99.90
2022-10-02T07:02:48.423Z,99.90
2022-10-02T07:05:27.288Z,99.90
2022-10-02T07:08:03.837Z,99.90
2022-10-02T07:10:43.600Z,99.90
2022-10-02T07:13:11.584Z,99.90
2022-10-02T07:16:09.343Z,99.90
2022-10-02T07:19:09.123Z,99.90
2022-10-02T07:21:52.608Z,99.90
2022-10-02T07:24:41.520Z,99.90
2022-10-02T07:27:35.212Z,99.90
2022-10-02T07:30:06.573Z,99.90
2022-10-02T07:32:44.161Z,99.90
2022-10-02T07:35:27.725Z,99.90
2022-10-02T07:37:57.507Z,99.90
2022-10-02T07:40:50.319Z,99.90
2022-10-02T07:43:25.337Z,99.90
2022-10-02T07:46:21.742Z,99.90
2022-10-02T07:49:02.893Z,99.90
2022-10-02T07:51:55.317Z,99.90
2022-10-02T07:54:33.859Z,99.90
2022-10-02T07:57:37.762Z,99.90
2022-10-02T08:00:13.030Z,99.90
2022-10-02T08:03:10.267Z,99.90
2022-10-02T08:05:49.249Z,99.90
2022-10-02T08:08:25.034Z,99.90
2022-10-02T08:11:06.976Z,99.90
2022-10-02T08:13:41.292Z,99.90
2022-10-02T08:16:09.818Z,99.90
2022-10-02T08:18:40.991Z,99.90
2022-10-02T08:21:16.686Z,99.90
2022-10-02T08:23:50.234Z,99.90
2022-10-02T08:26:49.371Z,99.90
2022-10-02T08:29:24.261Z,99.90
2022-10-02T08:31:54.850Z,99.90
2022-10-02T08:34:23.959Z,99.90
2022-10-02T08:37:14.003Z,99.90
2022-10-02T08:40:02.477Z,99.90
2022-10-02T08:42:47.580Z,99.90
2022-10-02T08:46:10.557Z,99.90
2022-10-02T08:49:21.734Z,99.90
2022-10-02T08:51:54.342Z,99.90
2022-10-02T08:54:42.034Z,99.90
2022-10-02T08:57:49.853Z,99.90
2022-10-02T09:00:30.843Z,99.90
2022-10-02T09:03:34.273Z,99.90
2022-10-02T09:06:13.166Z,99.90
2022-10-02T09:09:11.301Z,99.90
2022-10-02T09:12:00.493Z,99.90
2022-10-02T09:14:46.051Z,99.90
2022-10-02T09:17:32.389Z,99.90
2022-10-02T09:20:20.104Z,99.90
2022-10-02T09:23:20.749Z,99.90
2022-10-02T09:25:58.552Z,99.90
2022-10-02T09:28:27.977Z,99.90
2022-10-02T09:31:27.113Z,99.90
2022-10-02T09:34:15.402Z,99.90
2022-10-02T09:36:51.030Z,99.90
2022-10-02T09:39:26.828Z,99.90
2022-10-02T09:42:23.545Z,99.90
2022-10-02T09:45:24.370Z,99.90
2022-10-02T09:48:07.023Z,99.90
2022-10-02T09:51:19.334Z,99.90
2022-10-02T09:53:58.382Z,99.90
2022-10-02T09:57:02.629Z,99.90
2022-10-02T09:59:50.593Z,99.90
2022-10-02T10:02:50.799Z,99.90
2022-10-02T10:05:42.383Z,99.90
2022-10-02T10:08:15.454Z,99.90
2022-10-02T10:11:06.764Z,99.90
2022-10-02T10:14:11.390Z,99.90
2022-10-02T10:17:00.883Z,99.90
2022-10-02T10:19:53.579Z,99.90
2022-10-02T10:22:49.610Z,99.90
2022-10-02T10:25:49.660Z,99.90
2022-10-02T10:28:40.350Z,99.90
2022-10-02T10:31:32.420Z,99.90
2022-10-02T10:34:29.110Z,99.90
2022-10-02T10:37:36.331Z,99.90
2022-10-02T10:40:35.987Z,99.90
2022-10-02T10:43:07.927Z,99.90
2022-10-02T10:46:13.161Z,99.90
2022-10-02T10:49:00.142Z,99.90
2022-10-02T10:51:31.467Z,99.90
2022-10-02T10:54:03.529Z,99.90
2022-10-02T10:56:37.641Z,99.90
2022-10-02T10:59:34.921Z,99.90
2022-10-02T11:02:14.380Z,99.90
2022-10-02T11:05:03.411Z,99.90
2022-10-02T11:07:50.490Z,99.90
2022-10-02T11:10:42.307Z,99.90
2022-10-02T11:13:16.023Z,99.30
2022-10-02T11:16:02.562Z,98.50
2022-10-02T11:18:46.235Z,98.00
2022-10-02T11:21:41.350Z,97.20
2022-10-02T11:24:43.309Z,97.60
2022-10-02T11:27:47.265Z,96.00
2022-10-02T11:30:23.178Z,94.10
2022-10-02T11:33:17.469Z,93.40
2022-10-02T11:36:18.401Z,93.30
2022-10-02T11:38:55.336Z,90.80
2022-10-02T11:41:45.235Z,90.40
2022-10-02T11:44:45.124Z,86.60
2022-10-02T11:47:20.008Z,84.30
2022-10-02T11:49:59.062Z,75.90
2022-10-02T11:52:48.635Z,69.70
2022-10-02T11:55:49.365Z,64.50
2022-10-02T11:58:45.109Z,61.40
2022-10-02T12:01:17.671Z,62.10
2022-10-02T12:04:12.148Z,62.60
2022-10-02T12:07:00.701Z,59.90
2022-10-02T12:09:39.516Z,58.60
2022-10-02T12:12:31.435Z,59.10
2022-10-02T12:15:22.022Z,58.00
2022-10-02T12:18:01.665Z,56.30
2022-10-02T12:20:53.619Z,55.40
2022-10-02T12:24:06.394Z,54.90
2022-10-02T12:27:09.822Z,54.20
2022-10-02T12:29:56.205Z,51.10
2022-10-02T12:32:36.356Z,49.90
2022-10-02T12:35:24.648Z,48.20
2022-10-02T12:38:16.232Z,45.90
2022-10-02T12:41:07.992Z,46.20
2022-10-02T12:44:08.367Z,47.50
2022-10-02T12:46:57.468Z,48.20
2022-10-02T12:49:39.432Z,48.80
2022-10-02T12:52:34.509Z,48.90
2022-10-02T12:55:27.359Z,49.70
2022-10-02T12:58:10.479Z,49.60
2022-10-02T13:00:55.693Z,47.80
2022-10-02T13:03:59.972Z,47.10
2022-10-02T13:06:46.537Z,47.40
2022-10-02T13:09:30.293Z,47.60
2022-10-02T13:12:15.981Z,47.50
2022-10-02T13:15:04.646Z,47.30
2022-10-02T13:17:57.375Z,48.40
2022-10-02T13:20:38.806Z,46.10
2022-10-02T13:23:42.563Z,45.40
2022-10-02T13:26:27.670Z,47.10
2022-10-02T13:28:54.317Z,46.10
2022-10-02T13:31:27.611Z,44.80
2022-10-02T13:34:16.739Z,44.30
2022-10-02T13:37:10.104Z,44.80
2022-10-02T13:39:50.245Z,44.50
2022-10-02T13:42:36.991Z,43.60
2022-10-02T13:45:29.625Z,43.70
2022-10-02T13:48:05.713Z,44.30
2022-10-02T13:50:57.760Z,44.40
2022-10-02T13:53:55.709Z,46.80
2022-10-02T13:56:36.653Z,51.40
2022-10-02T13:59:26.422Z,55.90
2022-10-02T14:02:09.119Z,58.70
2022-10-02T14:04:59.152Z,61.40
2022-10-02T14:08:01.691Z,64.30
2022-10-02T14:11:02.011Z,68.00
2022-10-02T14:13:43.722Z,71.90
2022-10-02T14:16:10.420Z,74.10
2022-10-02T14:18:46.272Z,76.60
2022-10-02T14:21:35.551Z,78.70
2022-10-02T14:24:21.241Z,79.90
2022-10-02T14:27:19.342Z,81.60
2022-10-02T14:29:54.845Z,83.90
2022-10-02T14:32:48.638Z,86.20
2022-10-02T14:35:29.821Z,87.30
2022-10-02T14:38:16.442Z,88.50
2022-10-02T14:40:56.274Z,89.20
2022-10-02T14:43:51.934Z,90.20
2022-10-02T14:46:21.822Z,90.90
2022-10-02T14:48:55.823Z,91.70
2022-10-02T14:51:31.878Z,92.80
2022-10-02T14:54:35.821Z,93.10
2022-10-02T14:57:19.167Z,93.50
2022-10-02T15:00:20.023Z,93.90
2022-10-02T15:03:05.167Z,94.30
2022-10-02T15:06:02.164Z,95.10
2022-10-02T15:08:39.707Z,95.80
2022-10-02T15:11:21.311Z,96.10
2022-10-02T15:14:00.530Z,96.60
2022-10-02T15:16:54.712Z,96.90
2022-10-02T15:19:31.469Z,97.10
2022-10-02T15:22:03.567Z,97.20
2022-10-02T15:24:32.197Z,97.70
2022-10-02T15:27:15.673Z,97.70
2022-10-02T15:29:54.720Z,97.60
2022-10-02T15:32:21.375Z,98.00
2022-10-02T15:35:11.945Z,98.20
2022-10-02T15:38:02.791Z,98.30
2022-10-02T15:40:43.775Z,98.50
2022-10-02T15:43:15.990Z,98.80
2022-10-02T15:45:51.858Z,98.90
2022-10-02T15:48:27.295Z,99.30
2022-10-02T15:51:02.731Z,99.40
2022-10-02T15:54:00.501Z,99.70
2022-10-02T15:57:07.504Z,99.80
2022-10-02T16:00:01.126Z,99.90
2022-10-02T16:03:05.411Z,99.90
2022-10-02T16:05:52.325Z,99.90
2022-10-02T16:08:19.247Z,99.90
2022-10-02T16:11:07.072Z,99.90
2022-10-02T16:14:01.376Z,99.90
2022-10-02T16:16:58.522Z,99.90
2022-10-02T16:19:46.484Z,99.90
2022-10-02T16:22:43.991Z,99.90
2022-10-02T16:25:32.270Z,99.90
2022-10-02T16:28:11.958Z,99.90
2022-10-02T16:30:51.005Z,99.90
2022-10-02T16:33:43.054Z,99.90
2022-10-02T16:36:33.685Z,99.90
2022-10-02T16:39:28.697Z,99.90
2022-10-02T16:42:19.954Z,99.90
2022-10-02T16:45:15.840Z,99.90
2022-10-02T16:47:53.197Z,99.90
2022-10-02T16:50:41.554Z,99.90
2022-10-02T16:53:24.668Z,99.90
2022-10-02T16:56:12.258Z,99.90
2022-10-02T16:59:11.613Z,99.90
2022-10-02T17:02:16.427Z,99.90
2022-10-02T17:05:06.246Z,99.90
2022-10-02T17:07:44.861Z,99.90
2022-10-02T17:10:19.233Z,99.90
2022-10-02T17:12:57.937Z,99.90
2022-10-02T17:15:40.501Z,99.90
2022-10-02T17:18:45.164Z,99.90
2022-10-02T17:21:26.059Z,99.90
2022-10-02T17:24:13.713Z,99.90
2022-10-02T17:26:58.489Z,99.90
2022-10-02T17:29:43.681Z,99.90
2022-10-02T17:32:10.528Z,99.90
2022-10-02T17:34:50.185Z,99.90
2022-10-02T17:37:17.273Z,99.90
2022-10-02T17:39:46.833Z,99.90
2022-10-02T17:42:34.908Z,99.90
2022-10-02T17:45:15.430Z,99.90
2022-10-02T17:48:21.668Z,99.90
2022-10-02T17:51:51.235Z,99.90
2022-10-02T17:54:38.373Z,99.90
2022-10-02T17:57:07.836Z,99.90
2022-10-02T18:00:05.934Z,99.90
2022-10-02T18:02:58.769Z,99.90
2022-10-02T18:05:38.654Z,99.90
2022-10-02T18:08:33.315Z,99.90
2022-10-02T18:11:23.908Z,99.90
2022-10-02T18:14:09.430Z,99.90
2022-10-02T18:17:01.134Z,99.90
2022-10-02T18:19:37.088Z,99.90
2022-10-02T18:22:14.812Z,99.90
2022-10-02T18:25:19.262Z,99.90
2022-10-02T18:27:56.145Z,99.90
2022-10-02T18:30:29.269Z,99.90
2022-10-02T18:33:13.225Z,99.90
2022-10-02T18:36:28.252Z,99.90
2022-10-02T18:39:23.630Z,99.90
2022-10-02T18:42:17.662Z,99.90
2022-10-02T18:45:14.699Z,99.90
2022-10-02T18:47:57.449Z,99.90
2022-10-02T18:50:49.359Z,99.90
2022-10-02T18:53:28.743Z,99.90
2022-10-02T18:56:07.571Z,99.90
2022-10-02T18:59:22.005Z,99.90
2022-10-02T19:02:17.769Z,99.90
2022-10-02T19:05:12.046Z,99.90
2022-10-02T19:07:59.429Z,99.90
2022-10-02T19:10:30.866Z,99.90
2022-10-02T19:13:18.080Z,99.90
2022-10-02T19:15:47.772Z,99.90
2022-10-02T19:18:27.457Z,99.90
2022-10-02T19:21:09.300Z,99.90
2022-10-02T19:24:01.609Z,99.90
2022-10-02T19:26:34.671Z,99.90
2022-10-02T19:29:20.334Z,99.90
2022-10-02T19:31:47.345Z,99.90
2022-10-02T19:34:24.869Z,99.90
2022-10-02T19:36:58.505Z,99.90
2022-10-02T19:39:37.469Z,99.90
2022-10-02T19:42:15.095Z,99.90
2022-10-02T19:44:48.955Z,99.90
2022-10-02T19:47:27.270Z,99.90
2022-10-02T19:49:57.053Z,99.90
2022-10-02T19:52:46.863Z,99.90
2022-10-02T19:55:22.737Z,99.90
2022-10-02T19:57:51.593Z,99.90
2022-10-02T20:00:20.055Z,99.90
2022-10-02T20:02:49.678Z,99.90
2022-10-02T20:05:23.875Z,99.90
2022-10-02T20:07:56.013Z,99.90
2022-10-02T20:10:32.417Z,99.90
2022-10-02T20:13:37.449Z,99.90
2022-10-02T20:16:38.154Z,99.90
2022-10-02T20:19:07.765Z,99.90
2022-10-02T20:21:39.595Z,99.90
2022-10-02T20:24:34.796Z,99.90
2022-10-02T20:27:15.138Z,99.90
2022-10-02T20:29:47.294Z,99.90
2022-10-02T20:32:20.011Z,99.90
2022-10-02T20:35:03.889Z,99.90
2022-10-02T20:37:34.993Z,99.90
2022-10-02T20:40:13.309Z,99.90
2022-10-02T20:43:05.421Z,99.90
2022-10-02T20:45:55.018Z,99.90
2022-10-02T20:49:02.994Z,99.90
2022-10-02T20:51:45.006Z,99.90
2022-10-02T20:54:39.969Z,99.90
2022-10-02T20:57:59.157Z,99.90
2022-10-02T21:00:22.882Z,99.90
2022-10-02T21:03:13.437Z,99.90
2022-10-02T21:05:52.088Z,99.90
2022-10-02T21:08:56.977Z,99.90
2022-10-02T21:11:46.000Z,99.90
2022-10-02T21:14:31.504Z,99.90
2022-10-02T21:17:12.309Z,99.90
2022-10-02T21:19:39.291Z,99.90
2022-10-02T21:22:17.854Z,99.90
2022-10-02T21:25:03.865Z,99.90
2022-10-02T21:27:36.470Z,99.90
2022-10-02T21:30:17.916Z,99.90
2022-10-02T21:33:12.962Z,99.90
2022-10-02T21:35:54.396Z,99.90
2022-10-02T21:38:28.013Z,99.90
2022-10-02T21:41:33.804Z,99.90
2022-10-02T21:44:16.262Z,99.90
2022-10-02T21:47:21.100Z,99.90
2022-10-02T21:50:05.790Z,99.90
2022-10-02T21:53:23.870Z,99.90
2022-10-02T21:56:06.440Z,99.90
2022-10-02T21:58:54.193Z,99.90
2022-10-02T22:01:26.910Z,99.90
2022-10-02T22:04:31.654Z,99.90
2022-10-02T22:07:12.525Z,99.90
2022-10-02T22:09:48.884Z,99.90
2022-10-02T22:12:27.686Z,99.90
2022-10-02T22:15:13.366Z,99.90
2022-10-02T22:18:01.367Z,99.90
2022-10-02T22:21:05.966Z,99.90
2022-10-02T22:23:53.951Z,99.90
2022-10-02T22:26:35.930Z,99.90
2022-10-02T22:29:13.344Z,99.90
2022-10-02T22:31:51.816Z,99.90
2022-10-02T22:34:38.143Z,99.90
2022-10-02T22:37:26.406Z,99.90
2022-10-02T22:40:02.636Z,99.90
2022-10-02T22:42:40.640Z,99.90
2022-10-02T22:45:42.101Z,99.90
2022-10-02T22:48:47.662Z,99.90
2022-10-02T22:51:22.409Z,99.90
2022-10-02T22:54:21.337Z,99.90
2022-10-02T22:57:08.402Z,99.90
2022-10-02T22:59:44.151Z,99.90
2022-10-02T23:02:34.022Z,99.90
2022-10-02T23:05:19.085Z,99.90
2022-10-02T23:07:51.315Z,99.90
2022-10-02T23:10:28.055Z,99.90
2022-10-02T23:13:16.316Z,99.90
2022-10-02T23:16:02.544Z,99.90
2022-10-02T23:18:54.215Z,99.90
2022-10-02T23:21:44.583Z,99.90
2022-10-02T23:24:12.229Z,99.90
2022-10-02T23:26:49.843Z,99.90
2022-10-02T23:29:25.039Z,99.90
2022-10-02T23:31:58.159Z,99.90
2022-10-02T23:34:50.960Z,99.90
2022-10-02T23:37:44.701Z,99.90
2022-10-02T23:40:45.324Z,99.90
2022-10-02T23:43:23.319Z,99.90
2022-10-02T23:46:03.802Z,99.90
2022-10-02T23:48:32.372Z,99.90
2022-10-02T23:51:17.178Z,99.90
2022-10-02T23:53:46.815Z,99.90
2022-10-02T23:56:19.448Z,99.90
2022-10-02T23:59:23.466Z,99.90
